sensor_id;sensor_type;location;lat;lon;timestamp;P1;durP1;ratioP1;P2;durP2;ratioP2
26181;SDS011;13927;51.534;11.866;2023-09-30T00:02:15;3.22;;;1.73;;
26181;SDS011;13927;51.534;11.866;2023-09-30T00:04:41;5.90;;;2.00;;
26181;SDS011;13927;51.534;11.866;2023-09-30T00:07:06;6.05;;;2.90;;
26181;SDS011;13927;51.534;11.866;2023-09-30T00:09:32;7.43;;;2.50;;
26181;SDS011;13927;51.534;11.866;2023-09-30T00:11:58;6.57;;;2.75;;
26181;SDS011;13927;51.534;11.866;2023-09-30T00:14:24;6.85;;;3.28;;
26181;SDS011;13927;51.534;11.866;2023-09-30T00:16:50;5.82;;;2.50;;
26181;SDS011;13927;51.534;11.866;2023-09-30T00:19:16;5.88;;;2.08;;
26181;SDS011;13927;51.534;11.866;2023-09-30T00:21:42;6.07;;;2.63;;
26181;SDS011;13927;51.534;11.866;2023-09-30T00:24:08;9.60;;;2.72;;
26181;SDS011;13927;51.534;11.866;2023-09-30T00:26:34;10.63;;;3.00;;
26181;SDS011;13927;51.534;11.866;2023-09-30T00:29:00;10.20;;;2.75;;
26181;SDS011;13927;51.534;11.866;2023-09-30T00:31:29;5.22;;;2.75;;
26181;SDS011;13927;51.534;11.866;2023-09-30T00:33:56;5.80;;;2.20;;
26181;SDS011;13927;51.534;11.866;2023-09-30T00:36:22;8.02;;;2.88;;
26181;SDS011;13927;51.534;11.866;2023-09-30T00:38:48;6.80;;;2.40;;
26181;SDS011;13927;51.534;11.866;2023-09-30T00:41:13;5.07;;;2.63;;
26181;SDS011;13927;51.534;11.866;2023-09-30T00:43:39;8.32;;;2.88;;
26181;SDS011;13927;51.534;11.866;2023-09-30T00:49:08;7.63;;;3.35;;
26181;SDS011;13927;51.534;11.866;2023-09-30T00:51:35;10.73;;;2.83;;
26181;SDS011;13927;51.534;11.866;2023-09-30T00:54:01;6.25;;;3.08;;
26181;SDS011;13927;51.534;11.866;2023-09-30T00:56:29;7.20;;;3.40;;
26181;SDS011;13927;51.534;11.866;2023-09-30T00:58:55;7.00;;;3.60;;
26181;SDS011;13927;51.534;11.866;2023-09-30T01:01:21;6.78;;;3.63;;
26181;SDS011;13927;51.534;11.866;2023-09-30T01:03:47;7.93;;;3.10;;
26181;SDS011;13927;51.534;11.866;2023-09-30T01:06:13;6.32;;;3.13;;
26181;SDS011;13927;51.534;11.866;2023-09-30T01:08:39;9.02;;;3.67;;
26181;SDS011;13927;51.534;11.866;2023-09-30T01:11:06;6.25;;;3.03;;
26181;SDS011;13927;51.534;11.866;2023-09-30T01:13:33;8.15;;;3.42;;
26181;SDS011;13927;51.534;11.866;2023-09-30T01:16:03;8.30;;;3.80;;
26181;SDS011;13927;51.534;11.866;2023-09-30T01:18:30;10.25;;;3.90;;
26181;SDS011;13927;51.534;11.866;2023-09-30T01:20:56;8.98;;;3.95;;
26181;SDS011;13927;51.534;11.866;2023-09-30T01:23:28;10.02;;;3.88;;
26181;SDS011;13927;51.534;11.866;2023-09-30T01:25:55;10.05;;;4.25;;
26181;SDS011;13927;51.534;11.866;2023-09-30T01:28:21;7.00;;;3.90;;
26181;SDS011;13927;51.534;11.866;2023-09-30T01:30:48;9.48;;;4.43;;
26181;SDS011;13927;51.534;11.866;2023-09-30T01:33:13;6.80;;;4.20;;
26181;SDS011;13927;51.534;11.866;2023-09-30T01:35:41;5.60;;;4.18;;
26181;SDS011;13927;51.534;11.866;2023-09-30T01:38:07;9.50;;;4.30;;
26181;SDS011;13927;51.534;11.866;2023-09-30T01:40:33;9.80;;;3.92;;
26181;SDS011;13927;51.534;11.866;2023-09-30T01:42:58;14.57;;;4.38;;
26181;SDS011;13927;51.534;11.866;2023-09-30T01:45:24;10.43;;;4.22;;
26181;SDS011;13927;51.534;11.866;2023-09-30T01:47:50;7.90;;;4.63;;
26181;SDS011;13927;51.534;11.866;2023-09-30T01:50:15;10.40;;;4.38;;
26181;SDS011;13927;51.534;11.866;2023-09-30T01:52:42;7.97;;;3.97;;
26181;SDS011;13927;51.534;11.866;2023-09-30T01:55:08;11.95;;;5.25;;
26181;SDS011;13927;51.534;11.866;2023-09-30T01:57:33;9.70;;;4.38;;
26181;SDS011;13927;51.534;11.866;2023-09-30T01:59:59;10.48;;;4.32;;
26181;SDS011;13927;51.534;11.866;2023-09-30T02:02:25;9.25;;;4.20;;
26181;SDS011;13927;51.534;11.866;2023-09-30T02:04:51;8.60;;;4.95;;
26181;SDS011;13927;51.534;11.866;2023-09-30T02:07:18;12.70;;;4.55;;
26181;SDS011;13927;51.534;11.866;2023-09-30T02:09:44;8.20;;;3.83;;
26181;SDS011;13927;51.534;11.866;2023-09-30T02:12:10;10.80;;;4.90;;
26181;SDS011;13927;51.534;11.866;2023-09-30T02:14:36;9.85;;;4.15;;
26181;SDS011;13927;51.534;11.866;2023-09-30T02:17:03;13.93;;;4.10;;
26181;SDS011;13927;51.534;11.866;2023-09-30T02:19:29;9.20;;;3.92;;
26181;SDS011;13927;51.534;11.866;2023-09-30T02:21:58;15.65;;;3.83;;
26181;SDS011;13927;51.534;11.866;2023-09-30T02:24:24;7.75;;;3.80;;
26181;SDS011;13927;51.534;11.866;2023-09-30T02:26:51;8.95;;;3.40;;
26181;SDS011;13927;51.534;11.866;2023-09-30T02:29:16;13.00;;;4.07;;
26181;SDS011;13927;51.534;11.866;2023-09-30T02:31:42;11.25;;;4.10;;
26181;SDS011;13927;51.534;11.866;2023-09-30T02:34:08;9.85;;;3.85;;
26181;SDS011;13927;51.534;11.866;2023-09-30T02:36:34;9.50;;;3.75;;
26181;SDS011;13927;51.534;11.866;2023-09-30T02:39:04;13.55;;;4.10;;
26181;SDS011;13927;51.534;11.866;2023-09-30T02:41:30;12.18;;;3.60;;
26181;SDS011;13927;51.534;11.866;2023-09-30T02:43:56;9.07;;;3.88;;
26181;SDS011;13927;51.534;11.866;2023-09-30T02:46:21;12.25;;;3.55;;
26181;SDS011;13927;51.534;11.866;2023-09-30T02:48:47;8.27;;;3.20;;
26181;SDS011;13927;51.534;11.866;2023-09-30T02:51:13;10.70;;;3.70;;
26181;SDS011;13927;51.534;11.866;2023-09-30T02:53:40;13.10;;;3.97;;
26181;SDS011;13927;51.534;11.866;2023-09-30T02:56:06;12.88;;;3.72;;
26181;SDS011;13927;51.534;11.866;2023-09-30T02:58:31;12.85;;;3.90;;
26181;SDS011;13927;51.534;11.866;2023-09-30T03:00:57;11.18;;;3.83;;
26181;SDS011;13927;51.534;11.866;2023-09-30T03:03:24;9.80;;;3.97;;
26181;SDS011;13927;51.534;11.866;2023-09-30T03:05:50;10.07;;;3.53;;
26181;SDS011;13927;51.534;11.866;2023-09-30T03:08:17;10.88;;;3.70;;
26181;SDS011;13927;51.534;11.866;2023-09-30T03:10:42;11.30;;;3.22;;
26181;SDS011;13927;51.534;11.866;2023-09-30T03:13:08;12.02;;;4.00;;
26181;SDS011;13927;51.534;11.866;2023-09-30T03:15:35;9.98;;;3.78;;
26181;SDS011;13927;51.534;11.866;2023-09-30T03:18:01;11.60;;;3.70;;
26181;SDS011;13927;51.534;11.866;2023-09-30T03:20:28;14.02;;;4.38;;
26181;SDS011;13927;51.534;11.866;2023-09-30T03:22:56;12.05;;;4.35;;
26181;SDS011;13927;51.534;11.866;2023-09-30T03:25:22;10.43;;;3.72;;
26181;SDS011;13927;51.534;11.866;2023-09-30T03:27:48;10.38;;;3.88;;
26181;SDS011;13927;51.534;11.866;2023-09-30T03:30:14;14.32;;;4.38;;
26181;SDS011;13927;51.534;11.866;2023-09-30T03:32:42;13.70;;;4.25;;
26181;SDS011;13927;51.534;11.866;2023-09-30T03:35:09;10.27;;;3.63;;
26181;SDS011;13927;51.534;11.866;2023-09-30T03:37:36;10.73;;;3.55;;
26181;SDS011;13927;51.534;11.866;2023-09-30T03:40:02;9.25;;;3.20;;
26181;SDS011;13927;51.534;11.866;2023-09-30T03:42:37;8.77;;;2.88;;
26181;SDS011;13927;51.534;11.866;2023-09-30T03:45:04;8.63;;;3.75;;
26181;SDS011;13927;51.534;11.866;2023-09-30T03:47:37;8.88;;;3.78;;
26181;SDS011;13927;51.534;11.866;2023-09-30T03:50:06;8.20;;;3.30;;
26181;SDS011;13927;51.534;11.866;2023-09-30T03:52:39;11.43;;;3.70;;
26181;SDS011;13927;51.534;11.866;2023-09-30T03:55:04;11.60;;;3.85;;
26181;SDS011;13927;51.534;11.866;2023-09-30T03:57:31;10.95;;;3.60;;
26181;SDS011;13927;51.534;11.866;2023-09-30T03:59:58;9.05;;;3.47;;
26181;SDS011;13927;51.534;11.866;2023-09-30T04:02:25;14.73;;;3.83;;
26181;SDS011;13927;51.534;11.866;2023-09-30T04:04:52;11.52;;;3.67;;
26181;SDS011;13927;51.534;11.866;2023-09-30T04:07:20;11.93;;;3.53;;
26181;SDS011;13927;51.534;11.866;2023-09-30T04:09:46;12.10;;;3.70;;
26181;SDS011;13927;51.534;11.866;2023-09-30T04:12:12;9.75;;;3.33;;
26181;SDS011;13927;51.534;11.866;2023-09-30T04:14:38;8.40;;;3.40;;
26181;SDS011;13927;51.534;11.866;2023-09-30T04:17:04;10.57;;;3.28;;
26181;SDS011;13927;51.534;11.866;2023-09-30T04:19:30;10.77;;;3.65;;
26181;SDS011;13927;51.534;11.866;2023-09-30T04:21:56;10.40;;;3.67;;
26181;SDS011;13927;51.534;11.866;2023-09-30T04:24:22;9.70;;;3.70;;
26181;SDS011;13927;51.534;11.866;2023-09-30T04:26:47;8.40;;;3.55;;
26181;SDS011;13927;51.534;11.866;2023-09-30T04:29:15;10.27;;;3.72;;
26181;SDS011;13927;51.534;11.866;2023-09-30T04:31:41;9.48;;;3.00;;
26181;SDS011;13927;51.534;11.866;2023-09-30T04:34:07;11.68;;;3.65;;
26181;SDS011;13927;51.534;11.866;2023-09-30T04:36:33;10.23;;;3.08;;
26181;SDS011;13927;51.534;11.866;2023-09-30T04:39:00;10.50;;;3.58;;
26181;SDS011;13927;51.534;11.866;2023-09-30T04:41:26;9.30;;;3.33;;
26181;SDS011;13927;51.534;11.866;2023-09-30T04:43:51;7.93;;;3.28;;
26181;SDS011;13927;51.534;11.866;2023-09-30T04:46:17;12.60;;;3.20;;
26181;SDS011;13927;51.534;11.866;2023-09-30T04:48:48;9.18;;;3.13;;
26181;SDS011;13927;51.534;11.866;2023-09-30T04:51:13;10.65;;;3.10;;
26181;SDS011;13927;51.534;11.866;2023-09-30T04:53:43;11.43;;;3.60;;
26181;SDS011;13927;51.534;11.866;2023-09-30T04:56:11;17.38;;;3.55;;
26181;SDS011;13927;51.534;11.866;2023-09-30T04:58:38;8.18;;;3.28;;
26181;SDS011;13927;51.534;11.866;2023-09-30T05:01:03;9.63;;;3.67;;
26181;SDS011;13927;51.534;11.866;2023-09-30T05:03:29;16.42;;;4.40;;
26181;SDS011;13927;51.534;11.866;2023-09-30T05:05:55;9.73;;;3.28;;
26181;SDS011;13927;51.534;11.866;2023-09-30T05:08:22;10.70;;;3.53;;
26181;SDS011;13927;51.534;11.866;2023-09-30T05:10:49;10.82;;;3.13;;
26181;SDS011;13927;51.534;11.866;2023-09-30T05:13:15;12.02;;;3.55;;
26181;SDS011;13927;51.534;11.866;2023-09-30T05:15:41;12.05;;;3.45;;
26181;SDS011;13927;51.534;11.866;2023-09-30T05:18:07;13.35;;;3.75;;
26181;SDS011;13927;51.534;11.866;2023-09-30T05:20:35;8.48;;;3.67;;
26181;SDS011;13927;51.534;11.866;2023-09-30T05:23:02;11.10;;;3.97;;
26181;SDS011;13927;51.534;11.866;2023-09-30T05:25:28;14.70;;;3.17;;
26181;SDS011;13927;51.534;11.866;2023-09-30T05:27:53;7.22;;;3.28;;
26181;SDS011;13927;51.534;11.866;2023-09-30T05:30:19;9.93;;;3.55;;
26181;SDS011;13927;51.534;11.866;2023-09-30T05:32:45;7.47;;;2.92;;
26181;SDS011;13927;51.534;11.866;2023-09-30T05:35:12;6.82;;;3.13;;
26181;SDS011;13927;51.534;11.866;2023-09-30T05:37:41;7.85;;;2.70;;
26181;SDS011;13927;51.534;11.866;2023-09-30T05:40:08;10.98;;;3.80;;
26181;SDS011;13927;51.534;11.866;2023-09-30T05:42:46;15.10;;;3.13;;
26181;SDS011;13927;51.534;11.866;2023-09-30T05:47:48;10.82;;;2.83;;
26181;SDS011;13927;51.534;11.866;2023-09-30T05:50:17;12.60;;;3.28;;
26181;SDS011;13927;51.534;11.866;2023-09-30T05:52:49;8.57;;;2.88;;
26181;SDS011;13927;51.534;11.866;2023-09-30T05:55:16;10.73;;;3.30;;
26181;SDS011;13927;51.534;11.866;2023-09-30T05:57:49;11.00;;;3.15;;
26181;SDS011;13927;51.534;11.866;2023-09-30T06:00:15;9.95;;;2.97;;
26181;SDS011;13927;51.534;11.866;2023-09-30T06:03:02;12.13;;;2.95;;
26181;SDS011;13927;51.534;11.866;2023-09-30T06:05:31;13.05;;;3.10;;
26181;SDS011;13927;51.534;11.866;2023-09-30T06:07:58;11.38;;;2.63;;
26181;SDS011;13927;51.534;11.866;2023-09-30T06:10:30;8.95;;;3.30;;
26181;SDS011;13927;51.534;11.866;2023-09-30T06:12:56;10.70;;;3.53;;
26181;SDS011;13927;51.534;11.866;2023-09-30T06:15:24;8.25;;;3.42;;
26181;SDS011;13927;51.534;11.866;2023-09-30T06:17:54;12.68;;;3.70;;
26181;SDS011;13927;51.534;11.866;2023-09-30T06:20:22;10.93;;;3.45;;
26181;SDS011;13927;51.534;11.866;2023-09-30T06:22:51;10.05;;;3.30;;
26181;SDS011;13927;51.534;11.866;2023-09-30T06:25:18;10.02;;;2.53;;
26181;SDS011;13927;51.534;11.866;2023-09-30T06:27:46;11.05;;;3.53;;
26181;SDS011;13927;51.534;11.866;2023-09-30T06:30:14;6.57;;;2.92;;
26181;SDS011;13927;51.534;11.866;2023-09-30T06:32:41;7.15;;;2.55;;
26181;SDS011;13927;51.534;11.866;2023-09-30T06:35:07;8.85;;;3.15;;
26181;SDS011;13927;51.534;11.866;2023-09-30T06:37:37;7.30;;;2.63;;
26181;SDS011;13927;51.534;11.866;2023-09-30T06:40:06;13.90;;;3.28;;
26181;SDS011;13927;51.534;11.866;2023-09-30T06:42:36;8.43;;;2.30;;
26181;SDS011;13927;51.534;11.866;2023-09-30T06:45:02;13.63;;;3.55;;
26181;SDS011;13927;51.534;11.866;2023-09-30T06:47:31;16.88;;;3.47;;
26181;SDS011;13927;51.534;11.866;2023-09-30T06:50:10;10.73;;;3.85;;
26181;SDS011;13927;51.534;11.866;2023-09-30T06:52:41;5.47;;;2.40;;
26181;SDS011;13927;51.534;11.866;2023-09-30T06:55:10;10.02;;;2.90;;
26181;SDS011;13927;51.534;11.866;2023-09-30T06:57:39;8.63;;;2.78;;
26181;SDS011;13927;51.534;11.866;2023-09-30T07:00:06;8.57;;;3.10;;
26181;SDS011;13927;51.534;11.866;2023-09-30T07:02:34;8.10;;;3.00;;
26181;SDS011;13927;51.534;11.866;2023-09-30T07:05:02;7.30;;;2.80;;
26181;SDS011;13927;51.534;11.866;2023-09-30T07:07:36;11.18;;;3.42;;
26181;SDS011;13927;51.534;11.866;2023-09-30T07:10:02;8.25;;;2.90;;
26181;SDS011;13927;51.534;11.866;2023-09-30T07:12:31;7.35;;;3.28;;
26181;SDS011;13927;51.534;11.866;2023-09-30T07:15:00;12.00;;;3.65;;
26181;SDS011;13927;51.534;11.866;2023-09-30T07:17:28;6.40;;;2.85;;
26181;SDS011;13927;51.534;11.866;2023-09-30T07:19:55;9.93;;;3.80;;
26181;SDS011;13927;51.534;11.866;2023-09-30T07:22:22;7.97;;;3.72;;
26181;SDS011;13927;51.534;11.866;2023-09-30T07:24:48;8.27;;;3.53;;
26181;SDS011;13927;51.534;11.866;2023-09-30T07:27:14;9.40;;;3.65;;
26181;SDS011;13927;51.534;11.866;2023-09-30T07:29:40;6.95;;;3.03;;
26181;SDS011;13927;51.534;11.866;2023-09-30T07:32:07;6.00;;;3.00;;
26181;SDS011;13927;51.534;11.866;2023-09-30T07:34:34;10.05;;;3.45;;
26181;SDS011;13927;51.534;11.866;2023-09-30T07:37:00;8.23;;;3.25;;
26181;SDS011;13927;51.534;11.866;2023-09-30T07:39:27;9.65;;;3.55;;
26181;SDS011;13927;51.534;11.866;2023-09-30T07:41:54;7.32;;;3.03;;
26181;SDS011;13927;51.534;11.866;2023-09-30T07:44:20;7.28;;;3.05;;
26181;SDS011;13927;51.534;11.866;2023-09-30T07:46:46;11.98;;;3.10;;
26181;SDS011;13927;51.534;11.866;2023-09-30T07:49:12;12.45;;;3.05;;
26181;SDS011;13927;51.534;11.866;2023-09-30T07:51:39;9.88;;;4.38;;
26181;SDS011;13927;51.534;11.866;2023-09-30T07:54:05;9.90;;;3.17;;
26181;SDS011;13927;51.534;11.866;2023-09-30T07:56:31;11.43;;;4.03;;
26181;SDS011;13927;51.534;11.866;2023-09-30T07:58:57;11.32;;;3.65;;
26181;SDS011;13927;51.534;11.866;2023-09-30T08:01:24;7.43;;;3.17;;
26181;SDS011;13927;51.534;11.866;2023-09-30T08:03:50;10.43;;;3.00;;
26181;SDS011;13927;51.534;11.866;2023-09-30T08:06:16;11.32;;;3.72;;
26181;SDS011;13927;51.534;11.866;2023-09-30T08:08:42;12.65;;;3.97;;
26181;SDS011;13927;51.534;11.866;2023-09-30T08:11:09;29.15;;;6.85;;
26181;SDS011;13927;51.534;11.866;2023-09-30T08:13:35;10.25;;;4.15;;
26181;SDS011;13927;51.534;11.866;2023-09-30T08:16:02;9.73;;;3.42;;
26181;SDS011;13927;51.534;11.866;2023-09-30T08:18:28;10.60;;;3.10;;
26181;SDS011;13927;51.534;11.866;2023-09-30T08:20:54;44.22;;;11.88;;
26181;SDS011;13927;51.534;11.866;2023-09-30T08:23:20;9.80;;;3.58;;
26181;SDS011;13927;51.534;11.866;2023-09-30T08:25:46;12.05;;;3.65;;
26181;SDS011;13927;51.534;11.866;2023-09-30T08:28:13;10.48;;;2.90;;
26181;SDS011;13927;51.534;11.866;2023-09-30T08:30:39;8.30;;;2.85;;
26181;SDS011;13927;51.534;11.866;2023-09-30T08:33:06;9.80;;;2.90;;
26181;SDS011;13927;51.534;11.866;2023-09-30T08:35:36;11.07;;;3.33;;
26181;SDS011;13927;51.534;11.866;2023-09-30T08:38:03;8.50;;;2.83;;
26181;SDS011;13927;51.534;11.866;2023-09-30T08:40:29;9.15;;;2.90;;
26181;SDS011;13927;51.534;11.866;2023-09-30T08:42:56;8.50;;;2.83;;
26181;SDS011;13927;51.534;11.866;2023-09-30T08:45:23;7.13;;;2.90;;
26181;SDS011;13927;51.534;11.866;2023-09-30T08:47:54;10.32;;;2.28;;
26181;SDS011;13927;51.534;11.866;2023-09-30T08:50:20;6.07;;;2.20;;
26181;SDS011;13927;51.534;11.866;2023-09-30T08:52:47;7.25;;;2.45;;
26181;SDS011;13927;51.534;11.866;2023-09-30T08:55:15;10.20;;;2.88;;
26181;SDS011;13927;51.534;11.866;2023-09-30T08:57:41;15.93;;;2.72;;
26181;SDS011;13927;51.534;11.866;2023-09-30T09:00:12;11.15;;;2.42;;
26181;SDS011;13927;51.534;11.866;2023-09-30T09:02:39;10.20;;;2.10;;
26181;SDS011;13927;51.534;11.866;2023-09-30T09:05:06;10.80;;;3.10;;
26181;SDS011;13927;51.534;11.866;2023-09-30T09:07:34;8.77;;;2.63;;
26181;SDS011;13927;51.534;11.866;2023-09-30T09:10:08;9.43;;;2.38;;
26181;SDS011;13927;51.534;11.866;2023-09-30T09:12:39;8.38;;;2.05;;
26181;SDS011;13927;51.534;11.866;2023-09-30T09:15:08;6.70;;;1.98;;
26181;SDS011;13927;51.534;11.866;2023-09-30T09:17:48;9.70;;;1.88;;
26181;SDS011;13927;51.534;11.866;2023-09-30T09:20:17;7.63;;;1.95;;
26181;SDS011;13927;51.534;11.866;2023-09-30T09:22:50;5.88;;;2.10;;
26181;SDS011;13927;51.534;11.866;2023-09-30T09:25:20;7.72;;;2.38;;
26181;SDS011;13927;51.534;11.866;2023-09-30T09:27:48;8.80;;;2.42;;
26181;SDS011;13927;51.534;11.866;2023-09-30T09:30:26;5.85;;;1.60;;
26181;SDS011;13927;51.534;11.866;2023-09-30T09:33:03;9.02;;;1.85;;
26181;SDS011;13927;51.534;11.866;2023-09-30T09:35:32;11.10;;;1.80;;
26181;SDS011;13927;51.534;11.866;2023-09-30T09:38:06;7.32;;;2.10;;
26181;SDS011;13927;51.534;11.866;2023-09-30T09:40:34;7.13;;;1.80;;
26181;SDS011;13927;51.534;11.866;2023-09-30T09:43:03;9.00;;;2.42;;
26181;SDS011;13927;51.534;11.866;2023-09-30T09:45:33;7.22;;;1.63;;
26181;SDS011;13927;51.534;11.866;2023-09-30T09:48:03;5.72;;;1.80;;
26181;SDS011;13927;51.534;11.866;2023-09-30T09:50:30;9.95;;;2.42;;
26181;SDS011;13927;51.534;11.866;2023-09-30T09:52:58;8.73;;;2.42;;
26181;SDS011;13927;51.534;11.866;2023-09-30T09:55:26;9.38;;;2.22;;
26181;SDS011;13927;51.534;11.866;2023-09-30T09:57:53;5.68;;;1.88;;
26181;SDS011;13927;51.534;11.866;2023-09-30T10:00:21;9.68;;;2.35;;
26181;SDS011;13927;51.534;11.866;2023-09-30T10:02:50;30.65;;;7.95;;
26181;SDS011;13927;51.534;11.866;2023-09-30T10:05:18;7.07;;;1.63;;
26181;SDS011;13927;51.534;11.866;2023-09-30T10:07:50;6.97;;;1.60;;
26181;SDS011;13927;51.534;11.866;2023-09-30T10:10:29;5.22;;;2.08;;
26181;SDS011;13927;51.534;11.866;2023-09-30T10:12:56;8.43;;;1.75;;
26181;SDS011;13927;51.534;11.866;2023-09-30T10:20:38;7.55;;;1.92;;
26181;SDS011;13927;51.534;11.866;2023-09-30T10:28:44;7.53;;;1.73;;
26181;SDS011;13927;51.534;11.866;2023-09-30T10:31:21;5.13;;;1.83;;
26181;SDS011;13927;51.534;11.866;2023-09-30T10:36:30;7.28;;;2.20;;
26181;SDS011;13927;51.534;11.866;2023-09-30T10:39:01;5.43;;;1.33;;
26181;SDS011;13927;51.534;11.866;2023-09-30T10:46:55;7.88;;;1.58;;
26181;SDS011;13927;51.534;11.866;2023-09-30T10:51:51;5.07;;;1.77;;
26181;SDS011;13927;51.534;11.866;2023-09-30T10:54:26;7.85;;;2.20;;
26181;SDS011;13927;51.534;11.866;2023-09-30T10:56:55;7.05;;;1.60;;
26181;SDS011;13927;51.534;11.866;2023-09-30T10:59:26;7.15;;;1.90;;
26181;SDS011;13927;51.534;11.866;2023-09-30T11:02:00;6.53;;;1.77;;
26181;SDS011;13927;51.534;11.866;2023-09-30T11:04:29;6.80;;;1.77;;
26181;SDS011;13927;51.534;11.866;2023-09-30T11:06:57;6.53;;;1.55;;
26181;SDS011;13927;51.534;11.866;2023-09-30T11:09:26;6.38;;;1.77;;
26181;SDS011;13927;51.534;11.866;2023-09-30T11:11:53;7.63;;;2.78;;
26181;SDS011;13927;51.534;11.866;2023-09-30T11:16:58;6.18;;;1.83;;
26181;SDS011;13927;51.534;11.866;2023-09-30T11:19:36;6.73;;;1.73;;
26181;SDS011;13927;51.534;11.866;2023-09-30T11:22:12;5.63;;;1.70;;
26181;SDS011;13927;51.534;11.866;2023-09-30T11:24:40;5.70;;;1.67;;
26181;SDS011;13927;51.534;11.866;2023-09-30T11:27:07;4.57;;;1.65;;
26181;SDS011;13927;51.534;11.866;2023-09-30T11:29:34;4.88;;;1.92;;
26181;SDS011;13927;51.534;11.866;2023-09-30T11:32:01;6.25;;;1.80;;
26181;SDS011;13927;51.534;11.866;2023-09-30T11:34:32;4.95;;;1.60;;
26181;SDS011;13927;51.534;11.866;2023-09-30T11:39:28;5.75;;;2.03;;
26181;SDS011;13927;51.534;11.866;2023-09-30T11:41:56;7.07;;;1.88;;
26181;SDS011;13927;51.534;11.866;2023-09-30T11:44:26;4.18;;;1.58;;
26181;SDS011;13927;51.534;11.866;2023-09-30T11:47:02;3.97;;;1.65;;
26181;SDS011;13927;51.534;11.866;2023-09-30T11:49:36;7.30;;;1.95;;
26181;SDS011;13927;51.534;11.866;2023-09-30T11:52:12;4.37;;;1.63;;
26181;SDS011;13927;51.534;11.866;2023-09-30T11:54:44;7.32;;;2.50;;
26181;SDS011;13927;51.534;11.866;2023-09-30T11:57:12;6.22;;;1.88;;
26181;SDS011;13927;51.534;11.866;2023-09-30T11:59:41;6.43;;;1.90;;
26181;SDS011;13927;51.534;11.866;2023-09-30T12:02:13;4.35;;;1.45;;
26181;SDS011;13927;51.534;11.866;2023-09-30T12:04:45;6.95;;;2.13;;
26181;SDS011;13927;51.534;11.866;2023-09-30T12:07:15;5.07;;;1.48;;
26181;SDS011;13927;51.534;11.866;2023-09-30T12:09:42;6.13;;;1.67;;
26181;SDS011;13927;51.534;11.866;2023-09-30T12:12:10;6.63;;;1.90;;
26181;SDS011;13927;51.534;11.866;2023-09-30T12:14:40;5.20;;;1.73;;
26181;SDS011;13927;51.534;11.866;2023-09-30T12:17:08;6.28;;;1.88;;
26181;SDS011;13927;51.534;11.866;2023-09-30T12:19:36;4.45;;;1.98;;
26181;SDS011;13927;51.534;11.866;2023-09-30T12:22:03;7.85;;;1.80;;
26181;SDS011;13927;51.534;11.866;2023-09-30T12:24:32;5.88;;;1.73;;
26181;SDS011;13927;51.534;11.866;2023-09-30T12:27:00;8.10;;;2.03;;
26181;SDS011;13927;51.534;11.866;2023-09-30T12:29:27;4.38;;;1.50;;
26181;SDS011;13927;51.534;11.866;2023-09-30T12:32:00;4.55;;;1.63;;
26181;SDS011;13927;51.534;11.866;2023-09-30T12:34:34;6.13;;;1.73;;
26181;SDS011;13927;51.534;11.866;2023-09-30T12:37:23;5.60;;;1.45;;
26181;SDS011;13927;51.534;11.866;2023-09-30T12:40:16;3.30;;;1.83;;
26181;SDS011;13927;51.534;11.866;2023-09-30T12:42:49;6.63;;;1.40;;
26181;SDS011;13927;51.534;11.866;2023-09-30T12:45:33;4.72;;;1.88;;
26181;SDS011;13927;51.534;11.866;2023-09-30T12:48:05;6.75;;;1.80;;
26181;SDS011;13927;51.534;11.866;2023-09-30T12:50:47;3.60;;;1.67;;
26181;SDS011;13927;51.534;11.866;2023-09-30T12:53:19;5.30;;;1.58;;
26181;SDS011;13927;51.534;11.866;2023-09-30T12:55:46;6.72;;;1.50;;
26181;SDS011;13927;51.534;11.866;2023-09-30T12:58:12;5.00;;;1.60;;
26181;SDS011;13927;51.534;11.866;2023-09-30T13:00:40;5.43;;;1.25;;
26181;SDS011;13927;51.534;11.866;2023-09-30T13:03:06;4.80;;;1.40;;
26181;SDS011;13927;51.534;11.866;2023-09-30T13:05:33;6.30;;;1.42;;
26181;SDS011;13927;51.534;11.866;2023-09-30T13:07:59;5.38;;;1.45;;
26181;SDS011;13927;51.534;11.866;2023-09-30T13:10:26;6.18;;;1.83;;
26181;SDS011;13927;51.534;11.866;2023-09-30T13:12:55;4.28;;;1.27;;
26181;SDS011;13927;51.534;11.866;2023-09-30T13:15:23;5.65;;;1.40;;
26181;SDS011;13927;51.534;11.866;2023-09-30T13:17:51;5.63;;;1.27;;
26181;SDS011;13927;51.534;11.866;2023-09-30T13:20:18;5.45;;;1.73;;
26181;SDS011;13927;51.534;11.866;2023-09-30T13:22:45;5.15;;;1.27;;
26181;SDS011;13927;51.534;11.866;2023-09-30T13:25:11;2.80;;;1.10;;
26181;SDS011;13927;51.534;11.866;2023-09-30T13:27:38;3.58;;;1.13;;
26181;SDS011;13927;51.534;11.866;2023-09-30T13:30:06;4.88;;;1.30;;
26181;SDS011;13927;51.534;11.866;2023-09-30T13:32:34;3.60;;;1.13;;
26181;SDS011;13927;51.534;11.866;2023-09-30T13:35:04;5.43;;;1.25;;
26181;SDS011;13927;51.534;11.866;2023-09-30T13:37:32;4.47;;;1.40;;
26181;SDS011;13927;51.534;11.866;2023-09-30T13:40:00;4.63;;;1.48;;
26181;SDS011;13927;51.534;11.866;2023-09-30T13:42:27;3.97;;;1.05;;
26181;SDS011;13927;51.534;11.866;2023-09-30T13:44:54;4.40;;;1.38;;
26181;SDS011;13927;51.534;11.866;2023-09-30T13:47:23;3.53;;;1.10;;
26181;SDS011;13927;51.534;11.866;2023-09-30T13:49:53;9.13;;;1.58;;
26181;SDS011;13927;51.534;11.866;2023-09-30T13:52:20;5.97;;;1.63;;
26181;SDS011;13927;51.534;11.866;2023-09-30T13:54:47;5.22;;;1.30;;
26181;SDS011;13927;51.534;11.866;2023-09-30T13:57:13;5.00;;;1.50;;
26181;SDS011;13927;51.534;11.866;2023-09-30T13:59:40;3.90;;;1.10;;
26181;SDS011;13927;51.534;11.866;2023-09-30T14:02:08;3.45;;;1.23;;
26181;SDS011;13927;51.534;11.866;2023-09-30T14:04:35;4.28;;;1.73;;
26181;SDS011;13927;51.534;11.866;2023-09-30T14:07:01;4.38;;;1.67;;
26181;SDS011;13927;51.534;11.866;2023-09-30T14:09:28;4.10;;;1.48;;
26181;SDS011;13927;51.534;11.866;2023-09-30T14:11:55;5.10;;;1.73;;
26181;SDS011;13927;51.534;11.866;2023-09-30T14:14:24;5.68;;;1.80;;
26181;SDS011;13927;51.534;11.866;2023-09-30T14:16:51;5.32;;;1.60;;
26181;SDS011;13927;51.534;11.866;2023-09-30T14:19:18;4.13;;;1.40;;
26181;SDS011;13927;51.534;11.866;2023-09-30T14:25:25;3.17;;;1.20;;
26181;SDS011;13927;51.534;11.866;2023-09-30T14:27:52;5.65;;;1.42;;
26181;SDS011;13927;51.534;11.866;2023-09-30T14:30:18;4.75;;;1.38;;
26181;SDS011;13927;51.534;11.866;2023-09-30T14:32:46;4.30;;;1.30;;
26181;SDS011;13927;51.534;11.866;2023-09-30T14:35:12;2.30;;;1.30;;
26181;SDS011;13927;51.534;11.866;2023-09-30T14:37:38;4.40;;;1.70;;
26181;SDS011;13927;51.534;11.866;2023-09-30T14:40:06;3.97;;;2.05;;
26181;SDS011;13927;51.534;11.866;2023-09-30T14:42:36;6.50;;;1.40;;
26181;SDS011;13927;51.534;11.866;2023-09-30T14:45:03;4.03;;;1.15;;
26181;SDS011;13927;51.534;11.866;2023-09-30T14:47:29;4.15;;;1.13;;
26181;SDS011;13927;51.534;11.866;2023-09-30T14:49:56;3.70;;;1.33;;
26181;SDS011;13927;51.534;11.866;2023-09-30T14:52:22;5.82;;;1.35;;
26181;SDS011;13927;51.534;11.866;2023-09-30T14:54:48;4.63;;;1.10;;
26181;SDS011;13927;51.534;11.866;2023-09-30T14:57:14;4.65;;;1.30;;
26181;SDS011;13927;51.534;11.866;2023-09-30T14:59:41;4.43;;;1.27;;
26181;SDS011;13927;51.534;11.866;2023-09-30T15:02:07;3.97;;;1.40;;
26181;SDS011;13927;51.534;11.866;2023-09-30T15:04:34;2.70;;;0.90;;
26181;SDS011;13927;51.534;11.866;2023-09-30T15:07:01;4.50;;;1.38;;
26181;SDS011;13927;51.534;11.866;2023-09-30T15:09:27;3.67;;;0.93;;
26181;SDS011;13927;51.534;11.866;2023-09-30T15:11:54;4.82;;;1.25;;